Decoded Metar for LEVS (CUATRO VIENTOS in SPAIN) (IATA:N/A) | Meteo·Mobile Aviation Weather
aviador You're here:

LEVS Decoded Metar

CUATRO VIENTOS in SPAIN
Report Time2019-10-22 14:30:00
UTC Time2019-10-22 14:52:45
Flight Rules vfr VFR
WindVRB at 04 kt
Visibility9999 m
Phenomena:Light Rain
Clouds:Scattered 025 Hf
Broken 045 Hf
Expected CloudBase > 2,000 ft AGL from Temp-Dew spread
Ceiling4,500 ft
Temp10°C (ISA -1)
Dew Point05°C (71% RH)
AAT7.4°C
QNH1011 hPa
Density Alt2,385 ft
Elevation2,254 ft
Report Wrong Elevation
Raw Report
METAR LEVS 221430Z VRB04KT 9999 -RA SCT025 BKN045 10/05 Q1011=

Extra information for LEVS:More info

Metar Taf Metar & Taf Last 4 Metars F.Rules Stats Wind Profile Meteogram Temp Stats Airport Information Weather charts Add Link Nearby VenuesMetar ALERT Operation Metar Decoded Social comments